Archival Weather

Chicago O'Hare International

Chicago, Illinois (KORD)

Report from: Thursday, November 24, 2022 6:51 AM CST
Current time: Sunday, December 4, 2022 6:33 AM CST

Current weather
Weather history
Weather forecast

Temperature2.8°C (37.0°F)
Wind chill0.7°C (33.3°F)
Dew point-0.6°C (30.9°F)
Winds 4 kts (2.1 m/s, 4.6 mph) South (190°)
Visibility10 mi. (16.1 km)
Clouds Few clouds 11,000 ft. (3,353 m)
Scattered clouds 25,000 ft. (7,620 m)
Altimeter30.14 in.Hg (1021 mB)
Relative humidity78 %
Density altitude-1,645 ft. (-501 m)
Sea-level pressure102.1 kPa (1021 mB, 30.15 in.Hg)
Remarks System requires maintenance
Automated weather observing station with precipitation discriminator
Flight conditions Visual Meteorological Conditions
Raw dataKORD 241251Z 19004KT 10SM FEW110 SCT250 03/M01 A3014 RMK AO2 SLP211 T00281006 $
An error has occurred. This application may no longer respond until reloaded. Reload 🗙